sensor_id;sensor_type;location;lat;lon;timestamp;P1;durP1;ratioP1;P2;durP2;ratioP2
20857;SDS011;10589;53.636;10.012;2023-02-24T04:45:12;5.93;;;1.10;;
20857;SDS011;10589;53.636;10.012;2023-02-24T04:47:40;5.50;;;1.20;;
20857;SDS011;10589;53.636;10.012;2023-02-24T04:50:07;4.57;;;1.10;;
20857;SDS011;10589;53.636;10.012;2023-02-24T04:52:35;6.90;;;1.27;;
20857;SDS011;10589;53.636;10.012;2023-02-24T04:55:02;7.87;;;1.37;;
20857;SDS011;10589;53.636;10.012;2023-02-24T04:57:34;6.47;;;1.20;;
20857;SDS011;10589;53.636;10.012;2023-02-24T05:00:02;7.03;;;1.00;;
20857;SDS011;10589;53.636;10.012;2023-02-24T05:02:37;4.27;;;1.50;;
20857;SDS011;10589;53.636;10.012;2023-02-24T05:05:03;10.57;;;1.20;;
20857;SDS011;10589;53.636;10.012;2023-02-24T05:07:32;9.33;;;1.03;;
20857;SDS011;10589;53.636;10.012;2023-02-24T05:09:57;7.87;;;0.93;;
20857;SDS011;10589;53.636;10.012;2023-02-24T05:12:23;4.57;;;1.43;;
20857;SDS011;10589;53.636;10.012;2023-02-24T05:14:48;4.73;;;0.83;;
20857;SDS011;10589;53.636;10.012;2023-02-24T05:17:14;7.90;;;1.20;;
20857;SDS011;10589;53.636;10.012;2023-02-24T05:19:40;4.37;;;1.20;;
20857;SDS011;10589;53.636;10.012;2023-02-24T05:22:32;11.00;;;1.20;;
20857;SDS011;10589;53.636;10.012;2023-02-24T05:24:57;5.70;;;1.13;;
20857;SDS011;10589;53.636;10.012;2023-02-24T05:27:23;9.97;;;1.37;;
20857;SDS011;10589;53.636;10.012;2023-02-24T05:29:48;5.93;;;1.40;;
20857;SDS011;10589;53.636;10.012;2023-02-24T05:32:14;6.83;;;1.10;;
20857;SDS011;10589;53.636;10.012;2023-02-24T05:34:40;10.13;;;1.33;;
20857;SDS011;10589;53.636;10.012;2023-02-24T05:37:06;6.83;;;1.33;;
20857;SDS011;10589;53.636;10.012;2023-02-24T05:39:34;3.63;;;0.90;;
20857;SDS011;10589;53.636;10.012;2023-02-24T05:42:00;5.07;;;1.30;;
20857;SDS011;10589;53.636;10.012;2023-02-24T05:44:30;9.07;;;1.10;;
20857;SDS011;10589;53.636;10.012;2023-02-24T05:46:56;8.03;;;1.07;;
20857;SDS011;10589;53.636;10.012;2023-02-24T05:49:29;9.40;;;1.30;;
20857;SDS011;10589;53.636;10.012;2023-02-24T05:51:58;5.77;;;0.90;;
20857;SDS011;10589;53.636;10.012;2023-02-24T05:54:36;7.33;;;1.37;;
20857;SDS011;10589;53.636;10.012;2023-02-24T05:57:05;6.30;;;1.03;;
20857;SDS011;10589;53.636;10.012;2023-02-24T05:59:33;9.27;;;1.60;;
20857;SDS011;10589;53.636;10.012;2023-02-24T06:02:00;2.60;;;0.93;;
20857;SDS011;10589;53.636;10.012;2023-02-24T06:04:34;6.43;;;1.23;;
20857;SDS011;10589;53.636;10.012;2023-02-24T06:07:05;7.97;;;1.30;;
20857;SDS011;10589;53.636;10.012;2023-02-24T06:09:37;9.43;;;1.37;;
20857;SDS011;10589;53.636;10.012;2023-02-24T06:12:06;9.30;;;1.70;;
20857;SDS011;10589;53.636;10.012;2023-02-24T06:14:33;8.60;;;1.20;;
20857;SDS011;10589;53.636;10.012;2023-02-24T06:16:59;7.90;;;1.63;;
20857;SDS011;10589;53.636;10.012;2023-02-24T06:19:27;10.43;;;1.70;;
20857;SDS011;10589;53.636;10.012;2023-02-24T06:21:56;11.03;;;1.93;;
20857;SDS011;10589;53.636;10.012;2023-02-24T06:24:26;4.73;;;1.93;;
20857;SDS011;10589;53.636;10.012;2023-02-24T06:26:56;11.13;;;1.67;;
20857;SDS011;10589;53.636;10.012;2023-02-24T06:29:34;11.00;;;2.23;;
20857;SDS011;10589;53.636;10.012;2023-02-24T06:32:03;12.23;;;2.30;;
20857;SDS011;10589;53.636;10.012;2023-02-24T06:34:36;5.53;;;1.70;;
20857;SDS011;10589;53.636;10.012;2023-02-24T06:37:03;8.90;;;2.67;;
20857;SDS011;10589;53.636;10.012;2023-02-24T06:39:30;5.13;;;1.97;;
20857;SDS011;10589;53.636;10.012;2023-02-24T06:41:59;10.80;;;2.50;;
20857;SDS011;10589;53.636;10.012;2023-02-24T06:44:31;12.23;;;2.27;;
20857;SDS011;10589;53.636;10.012;2023-02-24T06:46:58;10.97;;;2.40;;
20857;SDS011;10589;53.636;10.012;2023-02-24T06:49:24;7.70;;;2.03;;
20857;SDS011;10589;53.636;10.012;2023-02-24T06:51:50;9.53;;;1.90;;
20857;SDS011;10589;53.636;10.012;2023-02-24T06:54:16;5.57;;;2.00;;
20857;SDS011;10589;53.636;10.012;2023-02-24T06:56:43;7.97;;;2.10;;
20857;SDS011;10589;53.636;10.012;2023-02-24T06:59:08;10.27;;;2.53;;
20857;SDS011;10589;53.636;10.012;2023-02-24T07:01:40;6.43;;;2.10;;
20857;SDS011;10589;53.636;10.012;2023-02-24T07:04:11;8.20;;;2.30;;
20857;SDS011;10589;53.636;10.012;2023-02-24T07:06:38;8.17;;;2.30;;
20857;SDS011;10589;53.636;10.012;2023-02-24T07:09:07;12.07;;;2.73;;
20857;SDS011;10589;53.636;10.012;2023-02-24T07:11:37;11.57;;;2.70;;
20857;SDS011;10589;53.636;10.012;2023-02-24T07:14:08;8.37;;;2.20;;
20857;SDS011;10589;53.636;10.012;2023-02-24T07:16:35;10.17;;;2.50;;
20857;SDS011;10589;53.636;10.012;2023-02-24T07:19:04;8.83;;;2.60;;
20857;SDS011;10589;53.636;10.012;2023-02-24T07:21:35;9.77;;;2.53;;
20857;SDS011;10589;53.636;10.012;2023-02-24T07:24:07;9.97;;;3.13;;
20857;SDS011;10589;53.636;10.012;2023-02-24T07:26:38;7.10;;;2.37;;
20857;SDS011;10589;53.636;10.012;2023-02-24T07:29:05;6.77;;;2.77;;
20857;SDS011;10589;53.636;10.012;2023-02-24T07:31:35;15.67;;;2.57;;
20857;SDS011;10589;53.636;10.012;2023-02-24T07:34:01;9.93;;;2.73;;
20857;SDS011;10589;53.636;10.012;2023-02-24T07:36:27;10.67;;;2.87;;
20857;SDS011;10589;53.636;10.012;2023-02-24T07:38:54;10.87;;;3.40;;
20857;SDS011;10589;53.636;10.012;2023-02-24T07:41:25;9.17;;;2.90;;
20857;SDS011;10589;53.636;10.012;2023-02-24T07:43:53;5.27;;;2.77;;
20857;SDS011;10589;53.636;10.012;2023-02-24T07:46:23;11.10;;;3.07;;
20857;SDS011;10589;53.636;10.012;2023-02-24T07:48:51;9.33;;;2.57;;
20857;SDS011;10589;53.636;10.012;2023-02-24T07:51:19;13.07;;;3.00;;
20857;SDS011;10589;53.636;10.012;2023-02-24T07:53:51;9.03;;;3.87;;
20857;SDS011;10589;53.636;10.012;2023-02-24T07:56:22;9.70;;;2.93;;
20857;SDS011;10589;53.636;10.012;2023-02-24T07:59:04;15.63;;;3.10;;
20857;SDS011;10589;53.636;10.012;2023-02-24T08:01:34;7.23;;;2.90;;
20857;SDS011;10589;53.636;10.012;2023-02-24T08:04:07;8.77;;;3.33;;
20857;SDS011;10589;53.636;10.012;2023-02-24T08:06:40;13.20;;;2.87;;
20857;SDS011;10589;53.636;10.012;2023-02-24T08:11:41;7.10;;;2.97;;
20857;SDS011;10589;53.636;10.012;2023-02-24T08:14:22;8.83;;;2.83;;
20857;SDS011;10589;53.636;10.012;2023-02-24T08:16:51;14.53;;;3.60;;
20857;SDS011;10589;53.636;10.012;2023-02-24T08:19:23;9.03;;;2.87;;
20857;SDS011;10589;53.636;10.012;2023-02-24T08:21:57;8.43;;;2.80;;
20857;SDS011;10589;53.636;10.012;2023-02-24T08:24:43;7.40;;;2.47;;
20857;SDS011;10589;53.636;10.012;2023-02-24T08:27:18;9.33;;;2.77;;
20857;SDS011;10589;53.636;10.012;2023-02-24T08:29:49;6.97;;;3.00;;
20857;SDS011;10589;53.636;10.012;2023-02-24T08:34:57;8.33;;;2.90;;
20857;SDS011;10589;53.636;10.012;2023-02-24T08:37:29;8.30;;;3.30;;
20857;SDS011;10589;53.636;10.012;2023-02-24T08:40:08;6.77;;;2.63;;
20857;SDS011;10589;53.636;10.012;2023-02-24T08:42:58;5.90;;;2.17;;
20857;SDS011;10589;53.636;10.012;2023-02-24T08:45:51;3.90;;;2.60;;
20857;SDS011;10589;53.636;10.012;2023-02-24T08:49:03;7.47;;;2.43;;
20857;SDS011;10589;53.636;10.012;2023-02-24T08:51:34;8.17;;;2.80;;
20857;SDS011;10589;53.636;10.012;2023-02-24T08:54:08;6.97;;;3.43;;
20857;SDS011;10589;53.636;10.012;2023-02-24T08:56:43;5.90;;;3.60;;
20857;SDS011;10589;53.636;10.012;2023-02-24T08:59:14;9.13;;;4.40;;
20857;SDS011;10589;53.636;10.012;2023-02-24T09:02:03;12.97;;;5.43;;
20857;SDS011;10589;53.636;10.012;2023-02-24T09:07:25;18.77;;;6.87;;
20857;SDS011;10589;53.636;10.012;2023-02-24T09:09:51;11.23;;;7.33;;
20857;SDS011;10589;53.636;10.012;2023-02-24T09:12:20;14.73;;;8.17;;
20857;SDS011;10589;53.636;10.012;2023-02-24T09:14:51;11.87;;;8.10;;
20857;SDS011;10589;53.636;10.012;2023-02-24T09:17:19;11.40;;;7.43;;
20857;SDS011;10589;53.636;10.012;2023-02-24T09:20:21;12.80;;;7.10;;
20857;SDS011;10589;53.636;10.012;2023-02-24T09:22:50;12.37;;;6.97;;
20857;SDS011;10589;53.636;10.012;2023-02-24T09:25:24;12.97;;;6.73;;
20857;SDS011;10589;53.636;10.012;2023-02-24T09:30:38;15.47;;;7.10;;
20857;SDS011;10589;53.636;10.012;2023-02-24T09:33:19;12.73;;;6.93;;
20857;SDS011;10589;53.636;10.012;2023-02-24T09:35:58;12.77;;;6.43;;
20857;SDS011;10589;53.636;10.012;2023-02-24T09:38:35;8.77;;;5.70;;
20857;SDS011;10589;53.636;10.012;2023-02-24T09:41:37;11.83;;;5.63;;
20857;SDS011;10589;53.636;10.012;2023-02-24T09:47:19;8.90;;;4.73;;
20857;SDS011;10589;53.636;10.012;2023-02-24T09:52:54;10.57;;;5.37;;
20857;SDS011;10589;53.636;10.012;2023-02-24T10:09:07;6.97;;;3.70;;
20857;SDS011;10589;53.636;10.012;2023-02-24T10:11:43;4.40;;;3.77;;
20857;SDS011;10589;53.636;10.012;2023-02-24T10:14:42;11.03;;;3.53;;
20857;SDS011;10589;53.636;10.012;2023-02-24T10:17:19;5.73;;;3.60;;
20857;SDS011;10589;53.636;10.012;2023-02-24T10:19:47;6.30;;;3.57;;
20857;SDS011;10589;53.636;10.012;2023-02-24T10:22:29;7.37;;;4.00;;
20857;SDS011;10589;53.636;10.012;2023-02-24T10:25:37;7.43;;;4.07;;
20857;SDS011;10589;53.636;10.012;2023-02-24T10:31:22;5.47;;;3.43;;
20857;SDS011;10589;53.636;10.012;2023-02-24T10:33:55;7.17;;;3.57;;
20857;SDS011;10589;53.636;10.012;2023-02-24T10:36:24;7.00;;;3.37;;
20857;SDS011;10589;53.636;10.012;2023-02-24T10:42:02;5.80;;;3.90;;
20857;SDS011;10589;53.636;10.012;2023-02-24T10:44:48;6.20;;;3.83;;
20857;SDS011;10589;53.636;10.012;2023-02-24T10:47:18;6.67;;;3.70;;
20857;SDS011;10589;53.636;10.012;2023-02-24T10:49:56;7.57;;;3.43;;
20857;SDS011;10589;53.636;10.012;2023-02-24T10:55:05;8.20;;;4.00;;
20857;SDS011;10589;53.636;10.012;2023-02-24T10:57:52;10.57;;;4.20;;
20857;SDS011;10589;53.636;10.012;2023-02-24T11:01:32;9.33;;;5.80;;
20857;SDS011;10589;53.636;10.012;2023-02-24T11:03:51;6.47;;;4.40;;
20857;SDS011;10589;53.636;10.012;2023-02-24T11:06:47;7.97;;;4.77;;
20857;SDS011;10589;53.636;10.012;2023-02-24T11:09:23;11.27;;;5.77;;
20857;SDS011;10589;53.636;10.012;2023-02-24T11:12:26;8.40;;;5.50;;
20857;SDS011;10589;53.636;10.012;2023-02-24T11:15:16;9.27;;;5.90;;
20857;SDS011;10589;53.636;10.012;2023-02-24T11:18:14;9.43;;;5.80;;
20857;SDS011;10589;53.636;10.012;2023-02-24T11:20:50;10.00;;;6.53;;
20857;SDS011;10589;53.636;10.012;2023-02-24T11:23:27;10.30;;;6.37;;
20857;SDS011;10589;53.636;10.012;2023-02-24T11:25:58;9.40;;;6.77;;
20857;SDS011;10589;53.636;10.012;2023-02-24T11:34:51;8.50;;;5.53;;
20857;SDS011;10589;53.636;10.012;2023-02-24T11:40:26;13.13;;;6.83;;
20857;SDS011;10589;53.636;10.012;2023-02-24T11:43:00;11.97;;;5.87;;
20857;SDS011;10589;53.636;10.012;2023-02-24T11:45:32;11.67;;;6.43;;
20857;SDS011;10589;53.636;10.012;2023-02-24T11:48:03;11.00;;;5.67;;
20857;SDS011;10589;53.636;10.012;2023-02-24T12:01:51;11.27;;;6.07;;
20857;SDS011;10589;53.636;10.012;2023-02-24T12:04:31;13.43;;;8.27;;
20857;SDS011;10589;53.636;10.012;2023-02-24T12:07:06;13.03;;;7.50;;
20857;SDS011;10589;53.636;10.012;2023-02-24T12:09:43;13.17;;;7.37;;
20857;SDS011;10589;53.636;10.012;2023-02-24T12:12:32;13.03;;;8.00;;
20857;SDS011;10589;53.636;10.012;2023-02-24T12:15:04;14.37;;;9.27;;
20857;SDS011;10589;53.636;10.012;2023-02-24T12:21:04;13.20;;;8.17;;
20857;SDS011;10589;53.636;10.012;2023-02-24T12:23:36;13.50;;;7.27;;
20857;SDS011;10589;53.636;10.012;2023-02-24T12:32:00;12.93;;;7.60;;
20857;SDS011;10589;53.636;10.012;2023-02-24T12:38:51;14.43;;;6.70;;
20857;SDS011;10589;53.636;10.012;2023-02-24T12:46:35;14.10;;;6.47;;
20857;SDS011;10589;53.636;10.012;2023-02-24T12:54:23;13.67;;;5.93;;
20857;SDS011;10589;53.636;10.012;2023-02-24T12:57:02;14.77;;;5.90;;
20857;SDS011;10589;53.636;10.012;2023-02-24T12:59:48;13.53;;;5.73;;
20857;SDS011;10589;53.636;10.012;2023-02-24T13:13:33;15.73;;;6.07;;
20857;SDS011;10589;53.636;10.012;2023-02-24T13:16:26;11.60;;;6.17;;
20857;SDS011;10589;53.636;10.012;2023-02-24T13:19:02;13.20;;;7.10;;
20857;SDS011;10589;53.636;10.012;2023-02-24T13:21:56;19.37;;;7.77;;
20857;SDS011;10589;53.636;10.012;2023-02-24T13:24:29;13.40;;;6.53;;
20857;SDS011;10589;53.636;10.012;2023-02-24T13:29:48;13.53;;;6.20;;
20857;SDS011;10589;53.636;10.012;2023-02-24T13:32:29;13.00;;;5.93;;
20857;SDS011;10589;53.636;10.012;2023-02-24T13:35:01;14.83;;;5.40;;
20857;SDS011;10589;53.636;10.012;2023-02-24T13:37:39;16.27;;;5.67;;
20857;SDS011;10589;53.636;10.012;2023-02-24T13:45:26;12.30;;;4.57;;
20857;SDS011;10589;53.636;10.012;2023-02-24T13:50:57;18.07;;;3.10;;
20857;SDS011;10589;53.636;10.012;2023-02-24T14:01:47;18.03;;;2.03;;
20857;SDS011;10589;53.636;10.012;2023-02-24T14:04:26;25.50;;;2.93;;
20857;SDS011;10589;53.636;10.012;2023-02-24T14:06:58;12.83;;;2.10;;
20857;SDS011;10589;53.636;10.012;2023-02-24T14:09:32;13.70;;;2.83;;
20857;SDS011;10589;53.636;10.012;2023-02-24T14:12:10;14.80;;;2.53;;
20857;SDS011;10589;53.636;10.012;2023-02-24T14:14:39;15.57;;;2.20;;
20857;SDS011;10589;53.636;10.012;2023-02-24T14:17:16;14.70;;;2.70;;
20857;SDS011;10589;53.636;10.012;2023-02-24T14:19:50;11.80;;;2.60;;
20857;SDS011;10589;53.636;10.012;2023-02-24T14:22:16;10.63;;;2.30;;
20857;SDS011;10589;53.636;10.012;2023-02-24T14:24:44;14.17;;;1.90;;
20857;SDS011;10589;53.636;10.012;2023-02-24T14:27:15;12.37;;;1.70;;
20857;SDS011;10589;53.636;10.012;2023-02-24T14:29:46;7.47;;;1.23;;
20857;SDS011;10589;53.636;10.012;2023-02-24T14:32:19;10.67;;;2.40;;
20857;SDS011;10589;53.636;10.012;2023-02-24T14:34:47;7.30;;;1.13;;
20857;SDS011;10589;53.636;10.012;2023-02-24T14:37:12;9.80;;;1.83;;
20857;SDS011;10589;53.636;10.012;2023-02-24T14:39:47;12.13;;;1.97;;
20857;SDS011;10589;53.636;10.012;2023-02-24T14:42:19;10.60;;;1.80;;
20857;SDS011;10589;53.636;10.012;2023-02-24T14:44:47;15.57;;;4.00;;
20857;SDS011;10589;53.636;10.012;2023-02-24T14:47:19;16.63;;;2.17;;
20857;SDS011;10589;53.636;10.012;2023-02-24T14:49:53;9.30;;;2.07;;
20857;SDS011;10589;53.636;10.012;2023-02-24T14:52:23;14.87;;;3.27;;
20857;SDS011;10589;53.636;10.012;2023-02-24T14:55:19;16.13;;;2.90;;
20857;SDS011;10589;53.636;10.012;2023-02-24T15:00:24;8.97;;;1.60;;
20857;SDS011;10589;53.636;10.012;2023-02-24T15:03:03;6.40;;;1.50;;
20857;SDS011;10589;53.636;10.012;2023-02-24T15:05:40;7.87;;;1.50;;
20857;SDS011;10589;53.636;10.012;2023-02-24T15:08:12;11.00;;;1.43;;
20857;SDS011;10589;53.636;10.012;2023-02-24T15:10:51;7.93;;;1.47;;
20857;SDS011;10589;53.636;10.012;2023-02-24T15:13:21;15.63;;;5.20;;
20857;SDS011;10589;53.636;10.012;2023-02-24T15:16:03;7.60;;;1.13;;
20857;SDS011;10589;53.636;10.012;2023-02-24T15:18:36;7.63;;;1.30;;
20857;SDS011;10589;53.636;10.012;2023-02-24T15:21:03;10.83;;;1.10;;
20857;SDS011;10589;53.636;10.012;2023-02-24T15:23:31;8.60;;;1.00;;
20857;SDS011;10589;53.636;10.012;2023-02-24T15:25:57;4.33;;;0.87;;
20857;SDS011;10589;53.636;10.012;2023-02-24T15:28:24;6.20;;;1.30;;
20857;SDS011;10589;53.636;10.012;2023-02-24T15:30:59;9.53;;;1.30;;
20857;SDS011;10589;53.636;10.012;2023-02-24T15:33:34;8.40;;;1.30;;
20857;SDS011;10589;53.636;10.012;2023-02-24T15:36:07;5.83;;;0.93;;
20857;SDS011;10589;53.636;10.012;2023-02-24T15:38:41;4.07;;;0.90;;
20857;SDS011;10589;53.636;10.012;2023-02-24T15:41:08;9.43;;;1.13;;
20857;SDS011;10589;53.636;10.012;2023-02-24T15:43:36;17.13;;;1.67;;
20857;SDS011;10589;53.636;10.012;2023-02-24T15:46:13;8.13;;;1.47;;
20857;SDS011;10589;53.636;10.012;2023-02-24T15:48:42;7.90;;;1.40;;
20857;SDS011;10589;53.636;10.012;2023-02-24T15:51:20;9.37;;;1.97;;
20857;SDS011;10589;53.636;10.012;2023-02-24T15:53:51;7.77;;;2.00;;
20857;SDS011;10589;53.636;10.012;2023-02-24T15:56:17;9.57;;;2.13;;
20857;SDS011;10589;53.636;10.012;2023-02-24T15:58:42;11.33;;;1.20;;
20857;SDS011;10589;53.636;10.012;2023-02-24T16:01:11;14.73;;;1.73;;
20857;SDS011;10589;53.636;10.012;2023-02-24T16:03:38;11.23;;;1.83;;
20857;SDS011;10589;53.636;10.012;2023-02-24T16:06:04;14.93;;;1.57;;
20857;SDS011;10589;53.636;10.012;2023-02-24T16:08:31;11.80;;;2.33;;
20857;SDS011;10589;53.636;10.012;2023-02-24T16:10:57;10.50;;;2.50;;
20857;SDS011;10589;53.636;10.012;2023-02-24T16:13:24;8.10;;;1.80;;
20857;SDS011;10589;53.636;10.012;2023-02-24T16:15:51;8.27;;;1.60;;
20857;SDS011;10589;53.636;10.012;2023-02-24T16:18:21;10.47;;;1.73;;
20857;SDS011;10589;53.636;10.012;2023-02-24T16:20:49;10.77;;;1.70;;
20857;SDS011;10589;53.636;10.012;2023-02-24T16:23:19;8.20;;;1.87;;
20857;SDS011;10589;53.636;10.012;2023-02-24T16:25:46;12.20;;;1.87;;
20857;SDS011;10589;53.636;10.012;2023-02-24T16:28:18;10.83;;;1.80;;
20857;SDS011;10589;53.636;10.012;2023-02-24T16:30:44;10.90;;;1.67;;
20857;SDS011;10589;53.636;10.012;2023-02-24T16:33:11;9.57;;;1.40;;
20857;SDS011;10589;53.636;10.012;2023-02-24T16:35:38;16.17;;;2.80;;
20857;SDS011;10589;53.636;10.012;2023-02-24T16:38:09;11.60;;;1.93;;
20857;SDS011;10589;53.636;10.012;2023-02-24T16:40:39;11.40;;;1.73;;
20857;SDS011;10589;53.636;10.012;2023-02-24T16:43:06;9.03;;;1.67;;
20857;SDS011;10589;53.636;10.012;2023-02-24T16:45:32;11.70;;;2.43;;
20857;SDS011;10589;53.636;10.012;2023-02-24T16:48:00;11.37;;;2.13;;
20857;SDS011;10589;53.636;10.012;2023-02-24T16:50:33;13.93;;;2.23;;
20857;SDS011;10589;53.636;10.012;2023-02-24T16:53:02;13.30;;;1.90;;
20857;SDS011;10589;53.636;10.012;2023-02-24T16:55:29;12.70;;;1.80;;
20857;SDS011;10589;53.636;10.012;2023-02-24T16:57:54;11.17;;;2.20;;
20857;SDS011;10589;53.636;10.012;2023-02-24T17:00:20;14.27;;;2.33;;
20857;SDS011;10589;53.636;10.012;2023-02-24T17:02:47;16.73;;;2.90;;
20857;SDS011;10589;53.636;10.012;2023-02-24T17:05:14;26.97;;;3.57;;
20857;SDS011;10589;53.636;10.012;2023-02-24T17:07:49;13.97;;;2.97;;
20857;SDS011;10589;53.636;10.012;2023-02-24T17:10:17;17.80;;;2.40;;
20857;SDS011;10589;53.636;10.012;2023-02-24T17:12:43;19.50;;;2.80;;
20857;SDS011;10589;53.636;10.012;2023-02-24T17:15:13;23.23;;;3.13;;
20857;SDS011;10589;53.636;10.012;2023-02-24T17:17:41;14.07;;;3.23;;
20857;SDS011;10589;53.636;10.012;2023-02-24T17:20:07;20.77;;;2.87;;
20857;SDS011;10589;53.636;10.012;2023-02-24T17:22:36;21.00;;;2.87;;
20857;SDS011;10589;53.636;10.012;2023-02-24T17:25:01;21.93;;;3.40;;
20857;SDS011;10589;53.636;10.012;2023-02-24T17:27:27;14.73;;;3.40;;
20857;SDS011;10589;53.636;10.012;2023-02-24T17:29:53;16.73;;;3.23;;
20857;SDS011;10589;53.636;10.012;2023-02-24T17:32:18;19.13;;;3.03;;
20857;SDS011;10589;53.636;10.012;2023-02-24T17:34:44;16.67;;;3.57;;
20857;SDS011;10589;53.636;10.012;2023-02-24T17:37:09;22.57;;;3.60;;
20857;SDS011;10589;53.636;10.012;2023-02-24T17:39:35;23.87;;;3.77;;
20857;SDS011;10589;53.636;10.012;2023-02-24T17:42:01;23.03;;;3.43;;
20857;SDS011;10589;53.636;10.012;2023-02-24T17:44:27;27.47;;;4.47;;
20857;SDS011;10589;53.636;10.012;2023-02-24T17:46:52;20.23;;;3.67;;
20857;SDS011;10589;53.636;10.012;2023-02-24T17:49:18;23.17;;;4.50;;
20857;SDS011;10589;53.636;10.012;2023-02-24T17:51:44;21.57;;;3.77;;
20857;SDS011;10589;53.636;10.012;2023-02-24T17:54:09;27.10;;;4.33;;
20857;SDS011;10589;53.636;10.012;2023-02-24T17:56:41;24.67;;;3.97;;
20857;SDS011;10589;53.636;10.012;2023-02-24T17:59:07;30.33;;;4.37;;
20857;SDS011;10589;53.636;10.012;2023-02-24T18:01:32;29.67;;;4.30;;
20857;SDS011;10589;53.636;10.012;2023-02-24T18:03:58;38.00;;;4.60;;
20857;SDS011;10589;53.636;10.012;2023-02-24T18:06:24;30.67;;;4.80;;
20857;SDS011;10589;53.636;10.012;2023-02-24T18:08:50;31.77;;;5.00;;
20857;SDS011;10589;53.636;10.012;2023-02-24T18:11:16;29.40;;;4.10;;
20857;SDS011;10589;53.636;10.012;2023-02-24T18:13:44;27.43;;;4.47;;
20857;SDS011;10589;53.636;10.012;2023-02-24T18:16:12;34.87;;;4.97;;
20857;SDS011;10589;53.636;10.012;2023-02-24T18:18:39;30.53;;;5.10;;
20857;SDS011;10589;53.636;10.012;2023-02-24T18:21:05;29.03;;;5.33;;
20857;SDS011;10589;53.636;10.012;2023-02-24T18:23:32;30.87;;;5.03;;
20857;SDS011;10589;53.636;10.012;2023-02-24T18:26:00;24.73;;;4.53;;
20857;SDS011;10589;53.636;10.012;2023-02-24T18:28:27;25.90;;;4.77;;
20857;SDS011;10589;53.636;10.012;2023-02-24T18:30:53;34.10;;;6.13;;
20857;SDS011;10589;53.636;10.012;2023-02-24T18:33:18;39.33;;;5.10;;
20857;SDS011;10589;53.636;10.012;2023-02-24T18:35:44;26.80;;;4.67;;
20857;SDS011;10589;53.636;10.012;2023-02-24T18:38:09;29.13;;;5.43;;
20857;SDS011;10589;53.636;10.012;2023-02-24T18:40:35;24.70;;;5.17;;
20857;SDS011;10589;53.636;10.012;2023-02-24T18:43:01;34.03;;;6.40;;
20857;SDS011;10589;53.636;10.012;2023-02-24T18:45:26;27.03;;;5.13;;
20857;SDS011;10589;53.636;10.012;2023-02-24T18:47:52;34.53;;;4.30;;
20857;SDS011;10589;53.636;10.012;2023-02-24T18:50:18;34.77;;;6.13;;
20857;SDS011;10589;53.636;10.012;2023-02-24T18:52:48;34.10;;;5.73;;
20857;SDS011;10589;53.636;10.012;2023-02-24T18:55:14;35.40;;;5.20;;
20857;SDS011;10589;53.636;10.012;2023-02-24T18:57:40;33.40;;;4.17;;
20857;SDS011;10589;53.636;10.012;2023-02-24T19:00:06;30.97;;;5.37;;
20857;SDS011;10589;53.636;10.012;2023-02-24T19:02:33;39.70;;;5.07;;
20857;SDS011;10589;53.636;10.012;2023-02-24T19:05:00;30.33;;;5.17;;
20857;SDS011;10589;53.636;10.012;2023-02-24T19:07:25;30.87;;;4.07;;
20857;SDS011;10589;53.636;10.012;2023-02-24T19:09:51;32.87;;;4.83;;
20857;SDS011;10589;53.636;10.012;2023-02-24T19:12:17;24.33;;;4.40;;
20857;SDS011;10589;53.636;10.012;2023-02-24T19:14:44;28.60;;;4.77;;
20857;SDS011;10589;53.636;10.012;2023-02-24T19:17:09;22.17;;;4.80;;
20857;SDS011;10589;53.636;10.012;2023-02-24T19:19:35;37.13;;;5.00;;
20857;SDS011;10589;53.636;10.012;2023-02-24T19:22:01;24.83;;;4.97;;
20857;SDS011;10589;53.636;10.012;2023-02-24T19:24:26;31.10;;;5.13;;
20857;SDS011;10589;53.636;10.012;2023-02-24T19:26:53;23.97;;;3.77;;
20857;SDS011;10589;53.636;10.012;2023-02-24T19:29:18;27.73;;;4.20;;
20857;SDS011;10589;53.636;10.012;2023-02-24T19:31:45;23.57;;;4.00;;
20857;SDS011;10589;53.636;10.012;2023-02-24T19:34:12;24.30;;;4.57;;
20857;SDS011;10589;53.636;10.012;2023-02-24T19:36:39;21.70;;;4.30;;
20857;SDS011;10589;53.636;10.012;2023-02-24T19:39:08;28.07;;;4.43;;
20857;SDS011;10589;53.636;10.012;2023-02-24T19:41:36;22.27;;;4.17;;
20857;SDS011;10589;53.636;10.012;2023-02-24T19:44:02;27.33;;;4.83;;
20857;SDS011;10589;53.636;10.012;2023-02-24T19:46:28;34.77;;;5.30;;
20857;SDS011;10589;53.636;10.012;2023-02-24T19:48:58;33.93;;;4.43;;
20857;SDS011;10589;53.636;10.012;2023-02-24T19:51:27;27.47;;;4.30;;
20857;SDS011;10589;53.636;10.012;2023-02-24T19:53:54;23.63;;;4.37;;
20857;SDS011;10589;53.636;10.012;2023-02-24T19:56:22;22.93;;;3.63;;
20857;SDS011;10589;53.636;10.012;2023-02-24T19:58:52;27.87;;;4.17;;
20857;SDS011;10589;53.636;10.012;2023-02-24T20:01:19;23.70;;;3.90;;
20857;SDS011;10589;53.636;10.012;2023-02-24T20:03:45;26.60;;;3.93;;
20857;SDS011;10589;53.636;10.012;2023-02-24T20:06:17;20.10;;;4.57;;
20857;SDS011;10589;53.636;10.012;2023-02-24T20:08:44;28.57;;;4.33;;
20857;SDS011;10589;53.636;10.012;2023-02-24T20:11:10;24.53;;;3.43;;
20857;SDS011;10589;53.636;10.012;2023-02-24T20:13:36;22.13;;;3.23;;
20857;SDS011;10589;53.636;10.012;2023-02-24T20:16:05;24.10;;;3.60;;
20857;SDS011;10589;53.636;10.012;2023-02-24T20:18:39;21.40;;;3.40;;
20857;SDS011;10589;53.636;10.012;2023-02-24T20:21:05;15.63;;;3.63;;
20857;SDS011;10589;53.636;10.012;2023-02-24T20:23:31;19.73;;;3.30;;
20857;SDS011;10589;53.636;10.012;2023-02-24T20:25:57;17.67;;;2.87;;
20857;SDS011;10589;53.636;10.012;2023-02-24T20:28:24;18.20;;;2.80;;
20857;SDS011;10589;53.636;10.012;2023-02-24T20:30:51;14.70;;;3.17;;
20857;SDS011;10589;53.636;10.012;2023-02-24T20:33:18;14.70;;;3.33;;
20857;SDS011;10589;53.636;10.012;2023-02-24T20:35:45;22.17;;;3.37;;
20857;SDS011;10589;53.636;10.012;2023-02-24T20:38:10;13.60;;;3.37;;
20857;SDS011;10589;53.636;10.012;2023-02-24T20:40:36;20.20;;;3.63;;
20857;SDS011;10589;53.636;10.012;2023-02-24T20:43:06;19.50;;;2.87;;
20857;SDS011;10589;53.636;10.012;2023-02-24T20:45:34;22.57;;;2.97;;
20857;SDS011;10589;53.636;10.012;2023-02-24T20:48:01;20.30;;;3.30;;
20857;SDS011;10589;53.636;10.012;2023-02-24T20:50:27;23.90;;;3.43;;
20857;SDS011;10589;53.636;10.012;2023-02-24T20:52:53;16.60;;;2.80;;
20857;SDS011;10589;53.636;10.012;2023-02-24T20:55:19;17.13;;;2.70;;
20857;SDS011;10589;53.636;10.012;2023-02-24T20:57:46;21.33;;;3.30;;
20857;SDS011;10589;53.636;10.012;2023-02-24T21:00:12;20.73;;;3.07;;
20857;SDS011;10589;53.636;10.012;2023-02-24T21:05:08;19.13;;;3.60;;
20857;SDS011;10589;53.636;10.012;2023-02-24T21:07:41;21.80;;;3.23;;
20857;SDS011;10589;53.636;10.012;2023-02-24T21:10:07;23.67;;;3.47;;
20857;SDS011;10589;53.636;10.012;2023-02-24T21:12:33;19.10;;;3.00;;
20857;SDS011;10589;53.636;10.012;2023-02-24T21:14:59;11.70;;;2.77;;
20857;SDS011;10589;53.636;10.012;2023-02-24T21:17:24;14.83;;;3.00;;
20857;SDS011;10589;53.636;10.012;2023-02-24T21:19:50;16.90;;;2.40;;
20857;SDS011;10589;53.636;10.012;2023-02-24T21:22:15;15.03;;;2.20;;
20857;SDS011;10589;53.636;10.012;2023-02-24T21:24:42;10.37;;;2.00;;
20857;SDS011;10589;53.636;10.012;2023-02-24T21:27:07;10.07;;;2.53;;
20857;SDS011;10589;53.636;10.012;2023-02-24T21:29:34;15.27;;;2.20;;
20857;SDS011;10589;53.636;10.012;2023-02-24T21:31:59;18.60;;;2.07;;